ADDS TAF Board (Experimental) INFO Settings

IDs: Format: Expanded Condensed

KMEM - Memphis Intl, TN, US

Issued at 1738 UTC 03 Mar 2015
Updated at: 1845 UTC 03 Mar 2015
Time1754Z 03/19Z 03/20Z 03/21Z 03/22Z 03/23Z 04/00Z 04/01Z 04/02Z 04/03Z 04/04Z 04/05Z 04/06Z 04/07Z
Type OBS PRVL PRVL PRVL PRVL PRVL PRVL PRVL PRVL PRVL PRVL PRVL PRVL PRVL
VIS 0.5 1 1 1 2 2 1 1 1 1 1 3 3 3
CIG 3 3 3 3 7 7 1 1 1 1 1 20 20 20
Cover OVC OVC OVC OVC OVC OVC OVC OVC OVC OVC OVC BKN BKN BKN
FltCat LIFR LIFR LIFR LIFR IFR IFR LIFR LIFR LIFR LIFR LIFR MVFR MVFR MVFR
WX -DZ BR -DZ BR -DZ BR -DZ BR -DZ BR -DZ BR -DZ BR -DZ BR -DZ BR -DZ BR -DZ BR BR BR BR
WDir 180 210 210 210 210 210 200 200 200 200 200 220 220 220
WSpd 10 10 10 10 10 10 10 10 10 10 10 12 12 12
WGst -- -- -- -- -- -- -- -- -- -- -- -- -- --
R09/27
XWnd -10 -9 -9 -9 -9 -9 -10 -10 -10 -10 -10 -9 -9 -9
HWnd 0 -5 -5 -5 -5 -5 -3 -3 -3 -3 -3 -7 -7 -7
R18/36
XWnd -0 -5 -5 -5 -5 -5 -4 -4 -4 -4 -4 -8 -8 -8
HWnd 10 9 9 9 9 9 9 9 9 9 9 9 9 9

NOTE: TEMPO conditions in [brackets]. Keep in mind TEMPO conditions might be better (lower impact) than prevailing conditions.

Raw TAF
KMEM 031738Z 0318/0418 21010KT 1SM -DZ BR OVC003
  FM032200 21010KT 2SM -DZ BR OVC007
  FM040000 20010KT 1SM -DZ BR OVC001
  FM040500 22012KT 3SM BR FEW003 SCT010 BKN020
  FM040900 34012G18KT 3SM -RA BR OVC003
  FM041200 01015G20KT 3SM -RA BR OVC003


Raw METAR
KMEM 031754Z 18010KT 1/2SM R36L/4500VP6000FT -DZ BR OVC003 13/12 A3002 RMK AO2 SFC VIS 1 1/2 SLP167 P0000 60000 T01280117 10128 20078 58016
KMEM 031654Z 20010KT 1/2SM R36L/3500V4000FT -DZ BR OVC003 12/11 A3005 RMK AO2 SFC VIS 1 1/2 DZE13B45 SLP177 P0000 T01170111
KMEM 031554Z 21010KT 1/2SM -DZ BR OVC003 11/10 A3006 RMK AO2 SFC VIS 2 SLP181 P0000 T01110100

METAR Board
Radar Display
Forecast Discussion

TAF Board Legend

Potential Impact
Threat None Slight Moderate High
Visibility (sm) ≥5.1 5.1>X≥3 3>X≥1 <1
Ceiling (100 ft) ≥30.1 30.1>X≥10 10>X≥5 <5
Wind Speed (kt) <10 10≤X<20 20≤X<30 ≥30
Wind Gust (kt) <15 15≤X<25 25≤X<35 ≥35
Weather No Wx Reported VCTS,-TS,-FZRA,SN TS,FZRA +TS,+FZRA,+SN